Time;durP1;ratioP1;P1;durP2;ratioP2;P2;SDS_P1;SDS_P2;PMS_P1;PMS_P2;Temp;Humidity;BMP_temperature;BMP_pressure;BME280_temperature;BME280_humidity;BME280_pressure;Samples;Min_cycle;Max_cycle;Signal;HPM_P1;HPM_P2
2022/06/08 00:00:03;;;;;;;1.92;0.90;;;17.30;86.10;;;;;;4951880;29;20173;-77
2022/06/08 00:02:32;;;;;;;1.13;0.70;;;17.30;86.10;;;;;;4953583;29;20030;-77
2022/06/08 00:04:58;;;;;;;1.00;0.70;;;17.20;86.50;;;;;;4953728;28;20032;-77
2022/06/08 00:07:24;;;;;;;0.70;0.40;;;17.20;87.00;;;;;;4954994;28;20043;-77
2022/06/08 00:09:50;;;;;;;0.93;0.63;;;17.20;86.90;;;;;;4954614;28;20027;-76
2022/06/08 00:12:16;;;;;;;1.20;0.80;;;17.20;87.40;;;;;;4955928;28;20115;-77
2022/06/08 00:14:43;;;;;;;1.20;0.50;;;17.20;87.40;;;;;;4943788;28;20031;-76
2022/06/08 00:17:09;;;;;;;0.90;0.40;;;17.00;87.50;;;;;;4936777;29;20032;-77
2022/06/08 00:19:34;;;;;;;1.00;0.63;;;17.00;87.90;;;;;;4936527;29;20030;-77
2022/06/08 00:22:00;;;;;;;5.10;0.85;;;17.00;88.10;;;;;;4949710;29;20114;-77
2022/06/08 00:24:26;;;;;;;0.75;0.47;;;17.00;88.50;;;;;;4936304;29;20521;-76
2022/06/08 00:26:52;;;;;;;0.82;0.47;;;17.00;88.60;;;;;;4942977;29;20046;-77
2022/06/08 00:29:18;;;;;;;0.70;0.50;;;17.10;88.70;;;;;;4955764;28;20079;-77
2022/06/08 00:31:44;;;;;;;2.15;0.50;;;17.10;88.30;;;;;;4955923;28;20035;-77
2022/06/08 00:34:09;;;;;;;1.23;0.60;;;17.10;88.20;;;;;;4953740;28;20593;-76
2022/06/08 00:36:35;;;;;;;1.88;0.60;;;17.10;88.20;;;;;;4955812;28;20035;-77
2022/06/08 00:39:01;;;;;;;4.03;0.82;;;17.10;88.40;;;;;;4948610;28;20086;-77
2022/06/08 00:41:50;;;;;;;1.00;0.50;;;17.20;88.30;;;;;;4936266;29;20044;-77
2022/06/08 00:44:21;;;;;;;0.80;0.40;;;17.20;88.00;;;;;;4936002;29;20055;-77
2022/06/08 00:46:48;;;;;;;0.55;0.32;;;17.20;88.10;;;;;;4936365;29;20032;-77
2022/06/08 00:49:38;;;;;;;0.55;0.30;;;17.10;87.80;;;;;;4936267;29;20023;-77
2022/06/08 00:52:05;;;;;;;0.38;0.28;;;17.00;88.20;;;;;;4935192;29;20039;-77
2022/06/08 00:54:39;;;;;;;0.65;0.40;;;17.10;88.20;;;;;;4936294;29;20718;-77
2022/06/08 00:57:15;;;;;;;0.50;0.35;;;17.00;88.40;;;;;;4936161;29;20048;-77
2022/06/08 00:59:50;;;;;;;0.60;0.40;;;17.10;88.40;;;;;;4936217;29;20491;-77
2022/06/08 01:02:16;;;;;;;1.10;0.55;;;17.20;88.30;;;;;;4938958;29;20063;-77
2022/06/08 01:04:42;;;;;;;0.82;0.45;;;17.20;88.50;;;;;;4954991;28;20046;-77
2022/06/08 01:07:14;;;;;;;0.80;0.40;;;17.20;88.00;;;;;;4953052;29;20019;-77
2022/06/08 01:09:40;;;;;;;1.40;0.40;;;17.30;88.20;;;;;;4950781;29;20032;-77
2022/06/08 01:12:15;;;;;;;0.30;0.20;;;17.30;88.10;;;;;;4934966;29;20414;-77
2022/06/08 01:14:42;;;;;;;0.43;0.20;;;17.30;88.40;;;;;;4936092;29;20024;-76
2022/06/08 01:17:14;;;;;;;0.47;0.30;;;17.30;88.10;;;;;;4936240;29;20036;-77
2022/06/08 01:19:46;;;;;;;0.55;0.40;;;17.30;88.00;;;;;;4950844;29;20047;-76
2022/06/08 01:22:16;;;;;;;2.30;0.40;;;17.30;88.10;;;;;;4952270;29;20162;-76
2022/06/08 01:24:44;;;;;;;0.20;0.20;;;17.40;88.10;;;;;;4950373;29;20111;-76
2022/06/08 01:27:26;;;;;;;0.60;0.30;;;17.30;87.80;;;;;;4935937;29;20095;-77
2022/06/08 01:30:02;;;;;;;0.73;0.40;;;17.40;88.10;;;;;;4936071;29;20027;-77
2022/06/08 01:32:42;;;;;;;0.30;0.20;;;17.50;88.40;;;;;;4940385;29;20047;-77
2022/06/08 01:35:36;;;;;;;1.50;0.40;;;17.50;88.20;;;;;;4955079;28;20138;-77
2022/06/08 01:38:32;;;;;;;0.28;0.20;;;17.50;88.30;;;;;;4955131;28;20110;-77
2022/06/08 01:41:35;;;;;;;2.08;0.20;;;17.50;88.00;;;;;;4952860;28;20109;-77
2022/06/08 01:44:13;;;;;;;0.65;0.30;;;17.50;87.90;;;;;;4953414;28;20067;-77
2022/06/08 01:47:06;;;;;;;0.52;0.30;;;17.60;88.00;;;;;;4955098;28;20035;-77
2022/06/08 01:49:44;;;;;;;0.85;0.30;;;17.50;87.70;;;;;;4949269;28;20043;-77
2022/06/08 01:52:16;;;;;;;0.20;0.20;;;17.60;88.10;;;;;;4935991;29;20035;-76
2022/06/08 01:55:11;;;;;;;0.43;0.20;;;17.50;87.90;;;;;;4940346;29;20028;-77
2022/06/08 01:58:00;;;;;;;1.02;0.22;;;17.50;88.30;;;;;;4935984;29;20031;-77
2022/06/08 02:00:58;;;;;;;0.82;0.30;;;17.60;88.30;;;;;;4935208;29;20059;-76
2022/06/08 02:03:31;;;;;;;0.32;0.25;;;17.50;88.10;;;;;;4953360;29;20565;-77
2022/06/08 02:06:06;;;;;;;0.47;0.20;;;17.60;88.30;;;;;;4939434;29;20024;-77
2022/06/08 02:08:51;;;;;;;1.95;0.22;;;17.60;88.20;;;;;;4939107;29;20055;-77
2022/06/08 02:11:42;;;;;;;0.52;0.30;;;17.60;88.00;;;;;;4953958;29;20032;-77
2022/06/08 02:14:37;;;;;;;0.68;0.30;;;17.70;88.00;;;;;;4938219;29;20159;-77
2022/06/08 02:17:10;;;;;;;1.75;0.30;;;17.70;87.80;;;;;;4927703;29;20044;-77
2022/06/08 02:20:01;;;;;;;0.30;0.20;;;17.70;88.50;;;;;;4938788;29;20027;-77
2022/06/08 02:22:39;;;;;;;0.47;0.30;;;17.80;88.10;;;;;;4956780;28;20039;-77
2022/06/08 02:25:17;;;;;;;1.02;0.40;;;17.80;87.90;;;;;;4958152;28;20015;-76
2022/06/08 02:27:49;;;;;;;1.25;0.32;;;17.80;87.70;;;;;;4956532;28;20094;-76
2022/06/08 02:30:21;;;;;;;0.30;0.20;;;17.80;87.40;;;;;;4952271;28;20023;-78
2022/06/08 02:35:48;;;;;;;0.30;0.20;;;17.80;87.70;;;;;;4958027;29;20603;-77
2022/06/08 02:38:18;;;;;;;0.25;0.20;;;17.70;87.50;;;;;;4967756;28;20043;-77
2022/06/08 02:40:47;;;;;;;;;;;17.70;87.60;;;;;;4938699;29;20048;-77
2022/06/08 02:43:32;;;;;;;0.60;0.40;;;17.70;87.70;;;;;;4938283;29;19915;-77
2022/06/08 02:46:30;;;;;;;1.30;0.30;;;17.80;87.60;;;;;;4944305;29;20035;-77
2022/06/08 02:48:55;;;;;;;0.40;0.30;;;17.80;87.80;;;;;;4956660;29;20727;-77
2022/06/08 02:51:29;;;;;;;0.50;0.30;;;17.70;87.40;;;;;;4950362;28;20123;-77
2022/06/08 02:54:03;;;;;;;0.32;0.22;;;17.80;87.70;;;;;;4938598;29;20070;-77
2022/06/08 02:57:01;;;;;;;2.00;0.40;;;17.80;87.60;;;;;;4937600;29;20039;-77
2022/06/08 02:59:35;;;;;;;1.27;0.52;;;17.70;87.70;;;;;;4956023;28;20039;-77
2022/06/08 03:02:18;;;;;;;1.67;0.50;;;17.70;87.30;;;;;;4957255;28;20051;-77
2022/06/08 03:05:08;;;;;;;1.83;0.45;;;17.70;87.70;;;;;;4942824;28;20513;-77
2022/06/08 03:07:45;;;;;;;1.05;0.57;;;17.70;87.80;;;;;;4938040;29;20055;-77
2022/06/08 03:10:14;;;;;;;2.72;0.50;;;17.80;87.50;;;;;;4952135;29;20583;-77
2022/06/08 03:12:54;;;;;;;5.68;0.70;;;17.80;87.50;;;;;;4956176;28;20031;-77
2022/06/08 03:15:23;;;;;;;1.10;0.60;;;17.80;87.40;;;;;;4956926;28;20467;-77
2022/06/08 03:17:50;;;;;;;0.68;0.47;;;17.80;87.40;;;;;;4956761;28;20113;-77
2022/06/08 03:20:20;;;;;;;0.90;0.60;;;17.80;87.80;;;;;;4954580;28;20473;-77
2022/06/08 03:22:46;;;;;;;2.22;0.60;;;17.80;87.50;;;;;;4955541;29;20122;-77
2022/06/08 03:25:14;;;;;;;0.85;0.50;;;17.80;87.40;;;;;;4956865;28;20502;-77
2022/06/08 03:27:42;;;;;;;0.80;0.50;;;17.80;87.30;;;;;;4944003;28;20032;-77
2022/06/08 03:30:18;;;;;;;1.52;0.60;;;17.80;87.10;;;;;;4937568;29;20043;-77
2022/06/08 03:32:44;;;;;;;0.95;0.60;;;17.70;87.60;;;;;;4944147;29;20060;-77
2022/06/08 03:35:10;;;;;;;0.80;0.57;;;17.70;87.60;;;;;;4956707;28;20039;-77
2022/06/08 03:37:36;;;;;;;0.77;0.40;;;17.70;87.30;;;;;;4956141;28;20030;-77
2022/06/08 03:40:04;;;;;;;1.65;0.70;;;17.70;87.80;;;;;;4956558;28;20027;-77
2022/06/08 03:42:29;;;;;;;1.10;0.68;;;17.70;87.60;;;;;;4941627;28;20103;-77
2022/06/08 03:44:55;;;;;;;1.50;0.70;;;17.70;88.00;;;;;;4937355;29;20466;-77
2022/06/08 03:47:29;;;;;;;1.05;0.70;;;17.70;87.70;;;;;;4937196;29;20052;-77
2022/06/08 03:49:59;;;;;;;1.38;0.55;;;17.70;88.20;;;;;;4950715;29;20417;-76
2022/06/08 03:52:28;;;;;;;1.60;0.50;;;17.80;87.70;;;;;;4948757;28;20024;-77
2022/06/08 03:54:58;;;;;;;0.95;0.52;;;17.70;87.50;;;;;;4937118;29;20193;-77
2022/06/08 03:57:24;;;;;;;1.83;0.60;;;17.70;86.90;;;;;;4951950;29;20024;-77
2022/06/08 03:59:51;;;;;;;1.65;0.60;;;17.60;87.20;;;;;;4937032;29;20028;-77
2022/06/08 04:02:17;;;;;;;3.35;0.80;;;17.60;86.80;;;;;;4951865;28;20551;-77
2022/06/08 04:04:53;;;;;;;3.00;0.98;;;17.60;87.10;;;;;;4936915;29;20036;-77
2022/06/08 04:07:19;;;;;;;1.77;0.68;;;17.60;87.40;;;;;;4951904;28;20035;-77
2022/06/08 04:09:45;;;;;;;1.35;0.73;;;17.60;87.10;;;;;;4936908;29;20032;-77
2022/06/08 04:12:11;;;;;;;2.17;0.77;;;17.50;86.40;;;;;;4936679;29;20667;-77
2022/06/08 04:14:37;;;;;;;1.00;0.63;;;17.50;86.90;;;;;;4950938;29;20035;-76
2022/06/08 04:17:03;;;;;;;1.20;0.80;;;17.50;87.70;;;;;;4935641;29;20118;-77
2022/06/08 04:19:30;;;;;;;1.95;0.77;;;17.50;87.40;;;;;;4951354;29;20115;-77
2022/06/08 04:21:56;;;;;;;2.53;0.63;;;17.50;87.50;;;;;;4953533;29;20031;-77
2022/06/08 04:24:23;;;;;;;3.03;0.65;;;17.60;87.60;;;;;;4942912;28;20066;-77
2022/06/08 04:26:50;;;;;;;2.95;1.10;;;17.60;87.30;;;;;;4936602;29;20106;-76
2022/06/08 04:29:17;;;;;;;3.67;1.27;;;17.60;87.00;;;;;;4936568;29;20035;-77
2022/06/08 04:31:43;;;;;;;2.22;0.75;;;17.60;86.50;;;;;;4935128;29;20063;-77
2022/06/08 04:34:10;;;;;;;1.30;0.73;;;17.60;87.00;;;;;;4954225;29;20035;-77
2022/06/08 04:36:38;;;;;;;3.22;0.95;;;17.60;87.00;;;;;;4953901;28;20027;-77
2022/06/08 04:39:08;;;;;;;4.05;1.15;;;17.60;86.80;;;;;;4953755;28;20666;-77
2022/06/08 04:41:35;;;;;;;2.60;1.00;;;17.60;87.00;;;;;;4954125;28;20043;-77
2022/06/08 04:44:01;;;;;;;1.92;1.02;;;17.60;86.90;;;;;;4953312;28;20035;-74
2022/06/08 04:46:27;;;;;;;2.97;1.20;;;17.60;86.80;;;;;;4935415;29;20510;-75
2022/06/08 04:48:54;;;;;;;3.03;1.00;;;17.60;87.10;;;;;;4950862;28;20075;-74
2022/06/08 04:51:20;;;;;;;2.20;1.02;;;17.60;86.90;;;;;;4935237;29;20395;-76
2022/06/08 04:53:47;;;;;;;2.55;1.30;;;17.70;87.00;;;;;;4934999;29;20043;-75
2022/06/08 04:56:14;;;;;;;2.20;1.27;;;17.70;86.80;;;;;;4952638;29;20035;-75
2022/06/08 04:58:40;;;;;;;2.33;1.00;;;17.70;86.50;;;;;;4955352;28;20031;-74
2022/06/08 05:01:06;;;;;;;3.80;1.30;;;17.70;86.90;;;;;;4954991;28;20062;-74
2022/06/08 05:03:32;;;;;;;2.97;1.00;;;17.60;85.30;;;;;;4952503;28;20055;-75
2022/06/08 05:06:01;;;;;;;5.35;1.40;;;17.50;85.90;;;;;;4954220;28;20024;-73
2022/06/08 05:08:27;;;;;;;2.03;0.93;;;17.50;87.40;;;;;;4938569;29;20036;-76
2022/06/08 05:10:55;;;;;;;1.70;0.98;;;17.40;87.00;;;;;;4938079;29;20119;-74
2022/06/08 05:13:22;;;;;;;2.45;1.10;;;17.30;87.00;;;;;;4952893;28;20561;-74
2022/06/08 05:15:49;;;;;;;7.68;1.60;;;17.30;86.40;;;;;;4955383;28;20077;-74
2022/06/08 05:18:18;;;;;;;1.50;1.08;;;17.40;87.00;;;;;;4952944;29;20041;-74
2022/06/08 05:20:45;;;;;;;2.47;0.90;;;17.40;86.00;;;;;;4953682;28;20031;-73
2022/06/08 05:23:16;;;;;;;2.78;0.90;;;17.40;86.50;;;;;;4953334;28;20055;-74
2022/06/08 05:25:42;;;;;;;5.53;1.40;;;17.40;87.10;;;;;;4954682;28;20019;-74
2022/06/08 05:28:08;;;;;;;2.70;0.95;;;17.40;87.20;;;;;;4951067;28;20032;-74
2022/06/08 05:30:35;;;;;;;5.97;1.25;;;17.30;87.40;;;;;;4934636;29;20478;-76
2022/06/08 05:33:03;;;;;;;3.05;0.73;;;17.30;87.10;;;;;;4958373;28;20569;-75
2022/06/08 05:35:29;;;;;;;4.43;1.10;;;17.30;87.60;;;;;;4935689;29;20079;-75
2022/06/08 05:37:55;;;;;;;6.05;1.20;;;17.30;87.60;;;;;;4953140;29;20058;-75
2022/06/08 05:40:23;;;;;;;3.50;1.38;;;17.30;87.00;;;;;;4956817;28;20035;-78
2022/06/08 05:42:49;;;;;;;2.10;1.10;;;17.30;86.70;;;;;;4958118;29;20028;-75
2022/06/08 05:45:22;;;;;;;3.78;1.17;;;17.20;85.00;;;;;;4952500;28;20557;-75
2022/06/08 05:47:48;;;;;;;6.25;1.48;;;17.30;86.00;;;;;;4955547;29;20983;-75
2022/06/08 05:50:14;;;;;;;4.80;1.48;;;17.30;85.80;;;;;;4955012;28;20037;-76
2022/06/08 05:52:40;;;;;;;3.20;1.17;;;17.30;85.20;;;;;;4955721;28;20401;-76
2022/06/08 05:55:07;;;;;;;4.55;1.25;;;17.30;85.20;;;;;;4972686;28;20031;-76
2022/06/08 05:57:32;;;;;;;2.92;1.38;;;17.50;86.00;;;;;;4954554;29;20662;-75
2022/06/08 05:59:58;;;;;;;4.47;1.30;;;17.80;84.90;;;;;;4955252;28;20038;-76
2022/06/08 06:02:24;;;;;;;3.10;1.40;;;17.90;83.30;;;;;;4955971;28;20031;-75
2022/06/08 06:04:50;;;;;;;5.03;1.05;;;18.10;83.60;;;;;;4955335;28;20046;-75
2022/06/08 06:07:16;;;;;;;4.05;1.52;;;18.10;82.60;;;;;;4956549;29;20031;-75
2022/06/08 06:09:42;;;;;;;2.50;1.30;;;18.00;83.40;;;;;;4955390;28;20030;-75
2022/06/08 06:12:09;;;;;;;4.28;1.35;;;17.90;83.20;;;;;;4927050;28;20047;-75
2022/06/08 06:14:35;;;;;;;6.45;1.30;;;18.00;83.90;;;;;;4942833;29;20027;-75
2022/06/08 06:17:02;;;;;;;2.63;1.15;;;18.30;83.50;;;;;;4952372;28;20571;-76
2022/06/08 06:19:27;;;;;;;5.28;1.63;;;18.40;82.70;;;;;;4947414;29;20027;-76
2022/06/08 06:21:53;;;;;;;4.25;1.38;;;18.40;83.00;;;;;;4951581;29;20035;-76
2022/06/08 06:24:19;;;;;;;3.13;1.50;;;18.40;82.10;;;;;;4955036;28;20027;-76
2022/06/08 06:26:45;;;;;;;5.28;1.50;;;18.40;83.00;;;;;;4938772;29;20035;-75
2022/06/08 06:29:11;;;;;;;4.28;1.65;;;18.40;81.20;;;;;;4936865;28;20102;-75
2022/06/08 06:31:53;;;;;;;5.10;1.27;;;18.30;82.40;;;;;;4940958;29;20035;-76
2022/06/08 06:34:22;;;;;;;4.55;1.30;;;18.40;82.30;;;;;;4948867;29;20058;-75
2022/06/08 06:36:49;;;;;;;5.05;1.63;;;18.50;81.60;;;;;;4945263;28;20038;-76
2022/06/08 06:39:15;;;;;;;4.28;1.60;;;18.50;82.40;;;;;;4951634;28;20055;-75
2022/06/08 06:41:42;;;;;;;7.10;1.52;;;18.30;81.00;;;;;;4950430;29;20142;-75
2022/06/08 06:44:08;;;;;;;4.85;1.42;;;18.30;81.70;;;;;;4946820;29;20039;-76
2022/06/08 06:46:34;;;;;;;4.75;1.20;;;18.30;82.00;;;;;;4956076;28;20025;-75
2022/06/08 06:49:00;;;;;;;4.90;1.65;;;18.30;82.70;;;;;;4957017;28;20027;-75
2022/06/08 06:51:26;;;;;;;2.67;1.35;;;18.30;82.60;;;;;;4956934;28;20023;-75
2022/06/08 06:53:51;;;;;;;9.82;1.92;;;18.20;82.50;;;;;;4951592;29;20042;-75
2022/06/08 06:56:17;;;;;;;5.10;1.63;;;18.30;82.70;;;;;;4955858;28;20541;-75
2022/06/08 06:58:48;;;;;;;6.55;1.65;;;18.30;81.90;;;;;;4937835;29;20036;-75
2022/06/08 07:01:15;;;;;;;10.45;2.53;;;18.30;82.20;;;;;;4942931;29;20035;-76
2022/06/08 07:03:40;;;;;;;2.83;1.50;;;18.30;81.90;;;;;;4955429;28;20031;-75
2022/06/08 07:06:06;;;;;;;3.72;1.48;;;18.30;79.50;;;;;;4956585;28;20031;-75
2022/06/08 07:08:31;;;;;;;4.28;1.38;;;18.60;81.20;;;;;;4951581;29;20032;-75
2022/06/08 07:13:44;;;;;;;4.47;1.80;;;18.80;81.50;;;;;;4956562;29;20525;-75
2022/06/08 07:16:10;;;;;;;4.72;1.75;;;19.00;79.40;;;;;;4955601;29;20031;-75
2022/06/08 07:18:36;;;;;;;6.15;1.70;;;18.90;77.40;;;;;;4956113;29;20432;-75
2022/06/08 07:21:02;;;;;;;6.95;1.70;;;18.90;78.50;;;;;;4956602;28;20486;-75
2022/06/08 07:23:28;;;;;;;6.93;2.30;;;19.00;79.50;;;;;;4956912;28;20034;-75
2022/06/08 07:25:53;;;;;;;4.63;1.73;;;19.20;78.20;;;;;;4956457;28;20106;-75
2022/06/08 07:28:19;;;;;;;4.97;2.08;;;19.60;78.40;;;;;;4938581;28;20031;-75
2022/06/08 07:30:45;;;;;;;6.50;1.63;;;20.10;77.60;;;;;;4936910;29;20447;-75
2022/06/08 07:33:10;;;;;;;6.72;2.05;;;20.80;75.50;;;;;;4949920;29;20097;-76
2022/06/08 07:35:36;;;;;;;4.03;1.05;;;21.20;73.40;;;;;;4955659;28;20031;-76
2022/06/08 07:38:02;;;;;;;3.78;1.10;;;22.60;70.60;;;;;;4955285;28;20555;-76
2022/06/08 07:40:28;;;;;;;4.75;1.48;;;24.30;64.40;;;;;;4949929;28;20106;-76
2022/06/08 07:42:53;;;;;;;5.60;1.38;;;24.60;65.80;;;;;;4937512;29;20046;-76
2022/06/08 07:45:19;;;;;;;4.47;1.10;;;26.10;61.00;;;;;;4937890;29;20491;-76
2022/06/08 07:50:29;;;;;;;8.10;1.75;;;28.10;53.60;;;;;;4937296;29;20410;-77
2022/06/08 07:52:55;;;;;;;6.60;1.20;;;29.80;44.70;;;;;;4937113;29;20031;-77
2022/06/08 07:55:22;;;;;;;6.85;1.63;;;28.60;44.60;;;;;;4951767;28;20043;-76
2022/06/08 07:57:48;;;;;;;9.65;1.65;;;27.80;50.50;;;;;;4936968;29;20024;-76
2022/06/08 08:00:15;;;;;;;10.15;1.10;;;27.30;50.80;;;;;;4935903;29;20087;-76
2022/06/08 08:02:41;;;;;;;6.85;0.90;;;26.10;53.30;;;;;;4937207;29;20019;-76
2022/06/08 08:05:09;;;;;;;7.50;1.13;;;25.10;52.40;;;;;;4936396;29;20107;-76
2022/06/08 08:07:36;;;;;;;9.57;1.88;;;24.40;56.60;;;;;;4936746;29;20028;-76
2022/06/08 08:10:04;;;;;;;12.30;1.50;;;23.80;59.90;;;;;;4951823;28;20028;-76
2022/06/08 08:12:30;;;;;;;5.78;1.20;;;23.30;59.10;;;;;;4967698;28;20046;-76
2022/06/08 08:14:56;;;;;;;5.53;1.50;;;23.30;62.20;;;;;;4955821;28;20130;-76
2022/06/08 08:17:21;;;;;;;7.80;1.58;;;23.70;60.70;;;;;;4951784;28;20102;-76
2022/06/08 08:19:47;;;;;;;2.97;1.50;;;23.40;59.80;;;;;;4950424;28;20023;-76
2022/06/08 08:22:15;;;;;;;7.55;1.23;;;23.30;60.60;;;;;;4951441;28;20043;-76
2022/06/08 08:24:41;;;;;;;2.70;1.10;;;23.20;62.70;;;;;;4942374;28;20078;-76
2022/06/08 08:27:07;;;;;;;2.28;0.98;;;23.30;62.40;;;;;;4935704;29;20027;-76
2022/06/08 08:29:33;;;;;;;4.35;1.40;;;23.80;62.20;;;;;;4949329;29;20027;-76
2022/06/08 08:31:58;;;;;;;3.28;1.30;;;23.60;60.60;;;;;;4953779;28;20039;-76
2022/06/08 08:34:25;;;;;;;6.65;1.90;;;23.20;58.50;;;;;;4940839;28;20039;-76
2022/06/08 08:36:51;;;;;;;6.78;1.88;;;22.80;63.10;;;;;;4942824;29;20563;-75
2022/06/08 08:39:19;;;;;;;11.82;1.50;;;22.60;62.20;;;;;;4952520;28;20082;-75
2022/06/08 08:44:35;;;;;;;4.70;1.38;;;22.60;64.70;;;;;;4951832;29;20074;-76
2022/06/08 08:47:29;;;;;;;4.55;0.98;;;25.80;57.80;;;;;;4965992;28;20115;-75
2022/06/08 08:50:19;;;;;;;3.53;0.90;;;27.40;51.70;;;;;;4949236;29;20020;-75
2022/06/08 08:53:01;;;;;;;4.38;1.00;;;27.30;48.30;;;;;;4951908;29;20038;-75
2022/06/08 08:55:47;;;;;;;4.90;0.88;;;26.90;50.30;;;;;;4951433;29;20036;-75
2022/06/08 08:58:24;;;;;;;7.10;0.98;;;26.60;51.70;;;;;;4953732;28;20042;-75
2022/06/08 09:00:51;;;;;;;6.88;1.23;;;28.40;46.50;;;;;;4950900;28;20055;-75
2022/06/08 09:03:26;;;;;;;5.65;1.27;;;28.80;43.40;;;;;;4934415;29;20028;-75
2022/06/08 09:05:58;;;;;;;4.15;0.70;;;29.90;44.40;;;;;;4944804;29;20086;-75
2022/06/08 09:08:24;;;;;;;5.60;0.93;;;28.80;45.60;;;;;;4952062;28;20028;-75
2022/06/08 09:10:55;;;;;;;5.35;0.70;;;27.40;44.30;;;;;;4941914;29;20027;-75
2022/06/08 09:13:31;;;;;;;3.00;0.95;;;26.40;46.90;;;;;;4959193;28;20027;-75
2022/06/08 09:15:59;;;;;;;4.70;0.93;;;25.50;50.20;;;;;;4942682;29;20395;-75
2022/06/08 09:18:40;;;;;;;4.72;1.45;;;24.70;50.80;;;;;;4940004;29;20028;-75
2022/06/08 09:21:30;;;;;;;6.85;1.10;;;25.80;51.10;;;;;;4955695;28;20035;-76
2022/06/08 09:24:06;;;;;;;6.20;1.35;;;27.50;47.60;;;;;;4957215;28;20042;-75
2022/06/08 09:26:35;;;;;;;6.47;1.45;;;27.40;45.70;;;;;;4973219;28;20038;-75
2022/06/08 09:29:15;;;;;;;2.90;1.33;;;26.70;45.80;;;;;;4955048;29;20054;-75
2022/06/08 09:31:41;;;;;;;10.10;1.77;;;25.90;48.90;;;;;;4958116;28;20031;-75
2022/06/08 09:34:28;;;;;;;10.98;1.63;;;25.60;46.30;;;;;;4957493;28;20082;-75
2022/06/08 09:37:26;;;;;;;4.78;0.98;;;25.30;48.70;;;;;;4958085;28;20032;-75
2022/06/08 09:39:58;;;;;;;5.63;1.35;;;24.90;51.70;;;;;;4954263;28;20039;-75
2022/06/08 09:42:42;;;;;;;7.30;1.13;;;24.10;49.90;;;;;;4939553;29;20075;-75
2022/06/08 09:45:26;;;;;;;4.40;1.30;;;23.40;52.40;;;;;;4939060;29;20082;-75
2022/06/08 09:51:27;;;;;;;5.55;1.23;;;23.10;54.10;;;;;;4939263;29;20050;-75
2022/06/08 09:54:09;;;;;;;8.30;2.15;;;23.10;56.10;;;;;;4950798;29;20039;-75
2022/06/08 09:57:03;;;;;;;5.65;1.90;;;23.40;54.30;;;;;;4950419;29;20033;-75
2022/06/08 09:59:40;;;;;;;5.60;1.63;;;23.60;55.20;;;;;;4953103;29;20032;-75
2022/06/08 10:02:29;;;;;;;8.30;1.55;;;23.80;52.60;;;;;;4938803;29;20043;-75
2022/06/08 10:05:13;;;;;;;2.92;1.23;;;23.60;54.10;;;;;;4944318;29;20035;-75
2022/06/08 10:07:45;;;;;;;3.95;1.70;;;23.30;54.60;;;;;;4957487;28;20038;-75
2022/06/08 10:10:31;;;;;;;2.60;1.35;;;23.80;54.30;;;;;;4943070;29;20110;-75
2022/06/08 10:13:00;;;;;;;4.25;1.58;;;24.70;52.90;;;;;;4938241;28;20050;-75
2022/06/08 10:15:26;;;;;;;;;;;25.80;49.30;;;;;;4952398;29;20038;-75
2022/06/08 10:17:58;;;;;;;8.52;2.20;;;26.00;50.00;;;;;;4955308;29;19910;-75
2022/06/08 10:20:36;;;;;;;4.75;1.73;;;26.90;48.10;;;;;;4956075;28;20019;-76
2022/06/08 10:23:27;;;;;;;3.90;1.27;;;27.90;45.20;;;;;;4951068;28;20032;-75
2022/06/08 10:26:08;;;;;;;4.28;1.00;;;28.50;42.20;;;;;;4954444;29;20493;-76
2022/06/08 10:28:48;;;;;;;7.75;2.22;;;28.60;41.40;;;;;;4954000;28;20031;-76
2022/06/08 10:31:21;;;;;;;7.82;1.55;;;28.40;42.80;;;;;;4955613;29;20027;-75
2022/06/08 10:33:55;;;;;;;6.00;1.85;;;28.30;40.90;;;;;;4941697;29;20103;-76
2022/06/08 10:36:22;;;;;;;5.88;1.30;;;28.60;42.00;;;;;;4938393;29;20067;-75
2022/06/08 10:38:48;;;;;;;4.57;0.60;;;27.90;40.70;;;;;;4947996;29;20023;-75
2022/06/08 10:44:48;;;;;;;4.95;1.02;;;26.90;44.00;;;;;;4957689;29;20401;-75
2022/06/08 10:47:13;;;;;;;4.85;0.98;;;26.70;44.70;;;;;;4943381;28;20135;-75
2022/06/08 10:49:39;;;;;;;5.55;1.50;;;26.30;42.20;;;;;;4937858;29;20055;-74
2022/06/08 10:52:13;;;;;;;2.97;1.10;;;26.30;45.30;;;;;;4938162;29;20031;-75
2022/06/08 10:54:54;;;;;;;2.90;1.00;;;26.30;43.80;;;;;;4938150;29;20166;-75
2022/06/08 10:57:31;;;;;;;8.98;1.35;;;26.20;44.70;;;;;;4938085;29;20689;-75
2022/06/08 11:00:25;;;;;;;4.95;1.38;;;25.90;44.40;;;;;;4938364;29;20081;-74
2022/06/08 11:03:00;;;;;;;6.18;1.10;;;25.80;45.10;;;;;;4938045;29;20075;-75
2022/06/08 11:05:42;;;;;;;3.83;1.00;;;25.70;47.20;;;;;;4937333;29;20056;-74
2022/06/08 11:08:09;;;;;;;7.90;1.20;;;25.60;46.90;;;;;;4937819;29;20040;-74
2022/06/08 11:10:51;;;;;;;5.38;1.25;;;25.70;47.20;;;;;;4939475;29;20491;-75
2022/06/08 11:13:26;;;;;;;5.50;1.05;;;25.80;45.60;;;;;;4954530;28;20042;-75
2022/06/08 11:16:11;;;;;;;5.20;0.85;;;25.70;44.70;;;;;;4957165;28;20023;-75
2022/06/08 11:18:57;;;;;;;5.13;0.90;;;25.70;43.50;;;;;;4941403;28;20190;-75
2022/06/08 11:21:57;;;;;;;12.75;2.22;;;26.00;44.50;;;;;;4942303;29;20035;-75
2022/06/08 11:24:34;;;;;;;2.92;0.80;;;26.20;42.80;;;;;;4951611;29;20039;-75
2022/06/08 11:27:12;;;;;;;4.85;0.90;;;26.50;42.90;;;;;;4937401;29;20027;-75
2022/06/08 11:29:46;;;;;;;3.05;0.80;;;26.50;42.80;;;;;;4941953;29;20101;-75
2022/06/08 11:32:34;;;;;;;3.88;1.00;;;26.40;42.70;;;;;;4955106;28;20414;-75
2022/06/08 11:34:59;;;;;;;3.65;1.15;;;26.00;41.90;;;;;;4953364;28;20037;-75
2022/06/08 11:37:33;;;;;;;5.15;1.15;;;25.90;43.60;;;;;;4945770;28;20035;-75
2022/06/08 11:40:10;;;;;;;8.32;1.95;;;25.90;43.90;;;;;;4935348;29;20077;-75
2022/06/08 11:42:50;;;;;;;3.05;0.68;;;25.80;44.40;;;;;;4936984;29;20115;-75
2022/06/08 11:45:40;;;;;;;4.50;1.00;;;25.80;43.10;;;;;;4937147;29;20487;-75
2022/06/08 11:48:13;;;;;;;2.45;1.00;;;25.70;45.10;;;;;;4937004;29;20028;-75
2022/06/08 11:50:41;;;;;;;6.47;1.08;;;25.60;45.00;;;;;;4937177;29;20708;-75
2022/06/08 11:53:18;;;;;;;28.15;2.70;;;25.80;43.30;;;;;;4940623;29;20042;-75
2022/06/08 11:56:08;;;;;;;1.98;0.43;;;25.70;42.30;;;;;;4948187;29;20406;-75
2022/06/08 11:58:35;;;;;;;3.05;0.73;;;25.70;43.20;;;;;;4950033;28;20019;-75
2022/06/08 12:01:14;;;;;;;4.85;0.65;;;25.70;40.30;;;;;;4936513;29;20036;-75
2022/06/08 12:03:44;;;;;;;4.28;0.80;;;25.60;43.00;;;;;;4936239;29;20079;-75
2022/06/08 12:06:25;;;;;;;4.65;1.30;;;25.80;42.20;;;;;;4936791;29;20028;-75
2022/06/08 12:08:54;;;;;;;3.90;0.90;;;25.80;42.90;;;;;;4945697;29;20024;-74
2022/06/08 12:11:28;;;;;;;3.23;0.67;;;26.10;42.40;;;;;;4947812;28;20413;-75
2022/06/08 12:13:57;;;;;;;2.67;0.70;;;26.10;41.60;;;;;;4946077;28;20093;-75
2022/06/08 12:16:33;;;;;;;2.83;0.60;;;26.20;42.10;;;;;;4948681;28;20030;-75
2022/06/08 12:19:13;;;;;;;2.33;0.52;;;26.20;42.40;;;;;;4950570;29;20042;-74
2022/06/08 12:21:41;;;;;;;4.25;0.70;;;26.00;41.60;;;;;;4966341;28;20032;-75
2022/06/08 12:24:13;;;;;;;3.60;0.90;;;25.90;41.60;;;;;;4955812;28;20796;-75
2022/06/08 12:26:38;;;;;;;3.17;0.80;;;25.70;41.80;;;;;;4954163;29;20020;-75
2022/06/08 12:29:13;;;;;;;4.70;1.30;;;25.80;42.90;;;;;;4954644;29;20055;-74
2022/06/08 12:31:39;;;;;;;8.23;1.77;;;25.70;42.80;;;;;;4955424;28;20086;-75
2022/06/08 12:34:34;;;;;;;9.30;1.83;;;25.40;43.00;;;;;;4952596;28;20061;-75
2022/06/08 12:37:28;;;;;;;6.15;0.82;;;25.20;42.70;;;;;;4954819;28;20046;-75
2022/06/08 12:39:57;;;;;;;4.28;0.73;;;25.30;42.70;;;;;;4954422;29;20031;-75
2022/06/08 12:42:37;;;;;;;3.72;0.95;;;25.50;44.20;;;;;;4950652;28;20058;-74
2022/06/08 12:45:03;;;;;;;6.30;0.88;;;25.30;44.00;;;;;;4943331;29;20019;-77
2022/06/08 12:47:43;;;;;;;5.57;1.02;;;25.20;44.70;;;;;;4946079;28;20039;-77
2022/06/08 12:50:15;;;;;;;6.25;1.10;;;25.40;44.90;;;;;;4935632;29;20518;-77
2022/06/08 12:52:41;;;;;;;4.82;0.77;;;25.50;45.00;;;;;;4954626;29;20114;-77
2022/06/08 12:55:15;;;;;;;6.57;1.15;;;25.30;45.60;;;;;;4959802;28;20035;-77
2022/06/08 12:57:42;;;;;;;1.42;0.60;;;25.30;43.70;;;;;;4949572;29;20035;-77
2022/06/08 13:00:13;;;;;;;6.50;0.95;;;25.20;45.00;;;;;;4952751;29;20023;-77
2022/06/08 13:02:40;;;;;;;3.60;0.82;;;25.10;44.60;;;;;;4969459;28;20100;-76
2022/06/08 13:05:23;;;;;;;4.45;0.70;;;25.10;44.90;;;;;;4951177;28;20041;-76
2022/06/08 13:07:50;;;;;;;10.68;1.20;;;25.20;44.60;;;;;;4949527;28;20055;-77
2022/06/08 13:10:16;;;;;;;6.97;1.40;;;25.00;45.80;;;;;;4933984;29;20028;-77
2022/06/08 13:12:45;;;;;;;4.78;0.80;;;24.90;45.70;;;;;;4949661;29;20031;-76
2022/06/08 13:15:20;;;;;;;5.22;1.00;;;24.80;45.00;;;;;;4935944;29;20028;-76
2022/06/08 13:17:47;;;;;;;5.78;0.85;;;24.60;45.90;;;;;;4940301;29;20039;-76
2022/06/08 13:20:29;;;;;;;5.03;0.90;;;24.40;46.30;;;;;;4938967;29;20024;-77
2022/06/08 13:22:56;;;;;;;5.47;0.88;;;24.30;47.50;;;;;;4954429;28;20023;-78
2022/06/08 13:25:26;;;;;;;6.00;1.08;;;24.00;48.50;;;;;;4943947;28;20110;-79
2022/06/08 13:27:54;;;;;;;9.93;1.38;;;24.10;48.20;;;;;;4940769;29;20028;-78
2022/06/08 13:30:23;;;;;;;4.20;1.40;;;24.20;48.50;;;;;;4935032;29;20028;-78